Time;durP1;ratioP1;P1;durP2;ratioP2;P2;SDS_P1;SDS_P2;PMS_P1;PMS_P2;Temp;Humidity;BMP_temperature;BMP_pressure;BME280_temperature;BME280_humidity;BME280_pressure;Samples;Min_cycle;Max_cycle;Signal;HPM_P1;HPM_P2
2022/06/15 00:01:24;;;;;;;7.90;4.70;;;;;;;12.77;72.43;100750.84;5062857;28;20511;-64
2022/06/15 00:03:53;;;;;;;8.10;4.20;;;;;;;12.73;72.52;100736.03;5063117;28;20441;-65
2022/06/15 00:06:21;;;;;;;6.90;4.50;;;;;;;12.71;73.02;100754.13;5062111;28;20526;-64
2022/06/15 00:08:50;;;;;;;4.93;3.97;;;;;;;12.67;72.76;100742.78;5063319;28;20513;-65
2022/06/15 00:11:19;;;;;;;5.10;4.30;;;;;;;12.66;73.16;100748.31;5062926;28;20507;-65
2022/06/15 00:13:46;;;;;;;8.80;4.53;;;;;;;12.62;73.29;100745.09;5062778;28;20452;-65
2022/06/15 00:16:14;;;;;;;7.03;3.63;;;;;;;12.61;73.53;100738.00;5062152;28;20508;-64
2022/06/15 00:18:41;;;;;;;7.13;3.90;;;;;;;12.58;73.54;100744.50;5063330;28;20488;-65
2022/06/15 00:21:09;;;;;;;6.17;3.90;;;;;;;12.59;73.37;100734.63;5067615;28;20478;-65
2022/06/15 00:23:36;;;;;;;6.90;4.20;;;;;;;12.57;72.97;100741.97;5071088;28;20552;-65
2022/06/15 00:26:04;;;;;;;9.00;4.43;;;;;;;12.53;73.25;100744.06;5062754;28;20492;-65
2022/06/15 00:28:31;;;;;;;5.13;4.60;;;;;;;12.45;73.78;100741.25;5062592;28;20480;-65
2022/06/15 00:30:57;;;;;;;7.47;3.87;;;;;;;12.42;74.04;100734.34;5062468;28;20481;-65
2022/06/15 00:33:25;;;;;;;6.40;3.70;;;;;;;12.39;73.76;100736.44;5062281;28;20449;-65
2022/06/15 00:35:57;;;;;;;7.90;3.83;;;;;;;12.36;73.71;100729.53;5063014;28;20530;-64
2022/06/15 00:38:26;;;;;;;6.40;4.50;;;;;;;12.19;74.58;100719.53;5047051;28;20437;-65
2022/06/15 00:40:52;;;;;;;6.40;4.87;;;;;;;12.28;74.89;100710.63;5047228;28;20488;-64
2022/06/15 00:43:35;;;;;;;6.17;4.43;;;;;;;12.11;75.39;100717.50;5061941;28;20495;-64
2022/06/15 00:46:03;;;;;;;7.17;4.47;;;;;;;12.15;75.29;100718.09;5061056;28;20490;-66
2022/06/15 00:48:30;;;;;;;5.50;4.30;;;;;;;12.14;74.93;100708.38;5047902;28;20442;-66
2022/06/15 00:50:56;;;;;;;8.30;4.43;;;;;;;12.15;75.21;100705.56;5062346;28;20480;-66
2022/06/15 00:53:24;;;;;;;7.27;4.37;;;;;;;12.15;74.67;100702.00;5049945;28;20469;-66
2022/06/15 00:55:51;;;;;;;7.20;4.40;;;;;;;12.10;74.71;100701.56;5062142;28;20487;-66
2022/06/15 00:58:18;;;;;;;7.90;4.37;;;;;;;12.07;74.77;100693.84;5062069;28;20449;-66
2022/06/15 01:00:47;;;;;;;11.07;4.70;;;;;;;11.96;75.14;100689.41;5058200;28;20833;-65
2022/06/15 01:03:13;;;;;;;4.80;3.80;;;;;;;11.98;75.04;100687.47;5039100;28;20544;-64
2022/06/15 01:05:48;;;;;;;5.03;4.53;;;;;;;11.96;75.18;100684.06;5041156;28;20474;-65
2022/06/15 01:08:24;;;;;;;6.00;3.90;;;;;;;11.88;75.64;100688.25;5042276;28;20461;-66
2022/06/15 01:11:15;;;;;;;8.30;4.50;;;;;;;11.85;75.78;100690.38;5032013;28;20558;-65
2022/06/15 01:13:57;;;;;;;8.57;4.50;;;;;;;11.71;75.69;100696.13;5033458;28;20528;-66
2022/06/15 01:16:29;;;;;;;4.20;3.77;;;;;;;11.63;75.40;100699.47;5041378;28;20493;-66
2022/06/15 01:19:04;;;;;;;5.93;4.77;;;;;;;11.56;75.60;100691.16;5041951;28;20430;-65
2022/06/15 01:21:34;;;;;;;5.13;3.80;;;;;;;11.60;76.09;100689.06;5060285;28;21005;-65
2022/06/15 01:24:36;;;;;;;7.30;5.00;;;;;;;11.58;75.78;100688.31;5067359;28;20497;-66
2022/06/15 01:27:24;;;;;;;6.93;4.07;;;;;;;11.52;76.00;100680.84;5061272;28;21121;-64
2022/06/15 01:30:17;;;;;;;10.90;5.00;;;;;;;11.52;76.13;100699.59;5062003;28;20461;-65
2022/06/15 01:33:06;;;;;;;6.60;4.17;;;;;;;11.48;76.75;100697.19;5061109;28;20453;-65
2022/06/15 01:35:38;;;;;;;7.80;5.40;;;;;;;11.48;76.29;100696.34;5045158;28;20488;-65
2022/06/15 01:38:21;;;;;;;9.17;4.70;;;;;;;11.52;76.48;100687.03;5041919;28;20441;-65
2022/06/15 01:40:52;;;;;;;11.40;6.07;;;;;;;11.42;76.60;100694.19;5021678;28;20474;-65
2022/06/15 01:43:21;;;;;;;10.20;5.20;;;;;;;11.37;77.11;100691.94;5037437;28;20512;-64
2022/06/15 01:45:49;;;;;;;5.73;4.40;;;;;;;11.36;77.33;100695.59;5023032;28;20509;-65
2022/06/15 01:48:16;;;;;;;8.33;4.57;;;;;;;11.35;77.25;100701.06;5041669;28;20555;-65
2022/06/15 01:50:45;;;;;;;6.90;5.63;;;;;;;11.36;77.39;100697.41;5040642;28;20497;-65
2022/06/15 01:53:16;;;;;;;9.17;5.40;;;;;;;11.30;77.03;100688.06;5037636;28;20446;-65
2022/06/15 01:55:46;;;;;;;9.83;5.50;;;;;;;11.28;77.13;100685.56;5040832;28;20477;-65
2022/06/15 01:58:14;;;;;;;8.20;5.77;;;;;;;11.26;77.25;100692.84;5048150;28;20453;-65
2022/06/15 02:00:41;;;;;;;10.17;5.40;;;;;;;11.24;77.25;100683.28;5050440;28;20496;-64
2022/06/15 02:03:14;;;;;;;6.97;5.03;;;;;;;11.15;77.35;100692.97;5060748;28;20484;-64
2022/06/15 02:05:43;;;;;;;9.20;4.80;;;;;;;11.12;78.05;100686.03;5060272;28;20480;-65
2022/06/15 02:08:15;;;;;;;6.30;5.20;;;;;;;11.17;78.01;100690.16;5061024;28;20448;-65
2022/06/15 02:10:48;;;;;;;6.07;4.93;;;;;;;11.12;77.87;100686.03;5060111;28;20503;-65
2022/06/15 02:13:18;;;;;;;8.30;5.40;;;;;;;11.08;78.33;100689.13;5064622;28;20460;-65
2022/06/15 02:15:47;;;;;;;8.53;5.93;;;;;;;11.07;77.96;100685.56;5060422;28;20476;-65
2022/06/15 02:18:18;;;;;;;13.87;5.40;;;;;;;11.03;77.93;100691.34;5061131;28;20436;-65
2022/06/15 02:20:47;;;;;;;7.60;5.07;;;;;;;11.00;78.23;100681.75;5060002;28;20864;-65
2022/06/15 02:23:15;;;;;;;6.20;4.90;;;;;;;10.95;78.35;100683.13;5060087;28;20532;-64
2022/06/15 02:25:46;;;;;;;9.47;5.00;;;;;;;10.79;79.02;100672.91;5059837;28;21013;-65
2022/06/15 02:28:13;;;;;;;9.33;5.33;;;;;;;10.76;79.50;100668.66;5060315;28;20472;-65
2022/06/15 02:30:42;;;;;;;9.20;5.50;;;;;;;10.69;80.30;100656.78;5060061;28;20605;-66
2022/06/15 02:33:11;;;;;;;10.93;6.33;;;;;;;10.68;80.35;100663.13;5060914;28;20453;-66
2022/06/15 02:35:39;;;;;;;6.80;5.30;;;;;;;10.71;80.07;100665.53;5059479;28;20484;-67
2022/06/15 02:38:06;;;;;;;7.33;5.30;;;;;;;10.72;80.00;100656.53;5060684;28;20464;-66
2022/06/15 02:40:32;;;;;;;6.20;5.60;;;;;;;10.76;79.95;100668.66;5059777;28;20487;-67
2022/06/15 02:43:01;;;;;;;7.97;5.60;;;;;;;10.78;79.79;100668.53;5064109;28;20519;-67
2022/06/15 02:45:31;;;;;;;11.43;5.60;;;;;;;10.82;79.67;100672.66;5059231;28;20457;-66
2022/06/15 02:47:58;;;;;;;7.80;5.60;;;;;;;10.82;79.41;100665.47;5060506;28;20722;-66
2022/06/15 02:50:27;;;;;;;10.40;5.90;;;;;;;10.81;79.38;100666.44;5060187;28;20436;-65
2022/06/15 02:52:58;;;;;;;12.07;5.63;;;;;;;10.80;79.31;100664.75;5044846;28;20492;-66
2022/06/15 02:55:26;;;;;;;10.40;5.37;;;;;;;10.83;79.23;100664.50;5059607;28;20476;-66
2022/06/15 02:58:02;;;;;;;7.13;5.10;;;;;;;10.82;79.26;100662.78;5060065;28;20473;-66
2022/06/15 03:00:28;;;;;;;10.53;5.27;;;;;;;10.82;79.43;100665.47;5053876;28;20456;-66
2022/06/15 03:02:55;;;;;;;6.83;5.77;;;;;;;10.83;79.10;100658.28;5060092;28;20501;-65
2022/06/15 03:05:22;;;;;;;6.10;5.47;;;;;;;10.77;79.04;100657.00;5059529;28;20445;-63
2022/06/15 03:07:48;;;;;;;10.73;5.60;;;;;;;10.78;79.07;100653.34;5059892;28;20453;-64
2022/06/15 03:10:17;;;;;;;8.03;5.83;;;;;;;10.82;79.29;100651.25;5059420;28;20441;-63
2022/06/15 03:12:43;;;;;;;10.23;6.27;;;;;;;10.87;79.50;100652.53;5063161;28;20466;-63
2022/06/15 03:15:11;;;;;;;6.60;5.50;;;;;;;10.91;79.27;100656.63;5058717;28;20457;-64
2022/06/15 03:17:38;;;;;;;7.20;6.50;;;;;;;10.92;78.92;100655.66;5060027;28;20457;-64
2022/06/15 03:20:05;;;;;;;7.53;6.13;;;;;;;10.99;78.68;100653.31;5060096;28;20436;-64
2022/06/15 03:22:33;;;;;;;6.97;5.40;;;;;;;11.20;78.20;100652.41;5060311;28;20485;-64
2022/06/15 03:24:59;;;;;;;12.40;6.50;;;;;;;11.97;75.63;100650.94;5063798;28;20508;-64
2022/06/15 03:27:28;;;;;;;7.13;5.33;;;;;;;12.30;73.39;100651.50;5063169;28;20611;-64
2022/06/15 03:29:55;;;;;;;8.70;6.23;;;;;;;12.80;71.67;100641.41;5064335;28;20476;-64
2022/06/15 03:32:22;;;;;;;9.13;6.17;;;;;;;13.47;69.17;100644.00;5063220;28;20504;-64
2022/06/15 03:34:48;;;;;;;7.80;5.80;;;;;;;13.59;68.23;100643.78;5070533;28;20483;-65
2022/06/15 03:37:15;;;;;;;6.97;5.77;;;;;;;14.41;65.42;100648.09;5063432;28;20477;-64
2022/06/15 03:39:42;;;;;;;8.57;5.83;;;;;;;15.35;61.29;100643.81;5062901;28;20433;-65
2022/06/15 03:42:10;;;;;;;8.37;5.30;;;;;;;16.63;57.52;100654.34;5063152;28;20568;-66
2022/06/15 03:44:38;;;;;;;10.30;5.10;;;;;;;17.53;53.84;100638.91;5063485;28;20484;-66
2022/06/15 03:47:05;;;;;;;4.57;4.13;;;;;;;18.21;51.99;100642.72;5062323;28;20504;-65
2022/06/15 03:49:32;;;;;;;5.97;3.83;;;;;;;18.41;50.24;100646.63;5063233;28;20516;-66
2022/06/15 03:51:59;;;;;;;5.57;3.87;;;;;;;18.93;48.46;100649.56;5062898;28;20531;-67
2022/06/15 03:54:26;;;;;;;5.20;3.73;;;;;;;19.16;47.57;100644.06;5063498;28;20449;-67
2022/06/15 03:56:52;;;;;;;6.47;4.00;;;;;;;19.43;46.71;100644.41;5062773;28;20477;-67
2022/06/15 03:59:19;;;;;;;4.03;3.60;;;;;;;20.11;45.01;100645.84;5069634;28;20527;-67
2022/06/15 04:01:47;;;;;;;7.00;3.60;;;;;;;20.55;43.89;100649.34;5067707;28;20502;-66
2022/06/15 04:04:14;;;;;;;6.87;3.73;;;;;;;20.99;43.00;100639.28;5062942;28;20546;-66
2022/06/15 04:06:41;;;;;;;4.23;3.00;;;;;;;21.27;42.18;100643.81;5062472;28;20476;-66
2022/06/15 04:09:06;;;;;;;5.40;3.40;;;;;;;21.17;42.03;100641.47;5063528;28;20437;-67
2022/06/15 04:14:17;;;;;;;7.57;3.63;;;;;;;21.50;41.36;100633.47;5062460;28;20213;-64
2022/06/15 04:16:44;;;;;;;5.53;3.20;;;;;;;21.19;41.96;100636.66;5061109;28;20526;-64
2022/06/15 04:19:12;;;;;;;7.77;3.47;;;;;;;21.98;40.59;100624.44;5063366;28;20445;-64
2022/06/15 04:21:38;;;;;;;4.27;2.77;;;;;;;22.37;39.48;100639.16;5062380;28;20484;-64
2022/06/15 04:24:11;;;;;;;6.50;3.90;;;;;;;22.27;39.92;100631.41;5062858;28;20488;-64
2022/06/15 04:26:38;;;;;;;6.80;3.80;;;;;;;22.76;39.10;100629.31;5058868;28;20481;-66
2022/06/15 04:29:04;;;;;;;4.20;3.23;;;;;;;22.55;39.28;100624.88;5062336;28;20453;-65
2022/06/15 04:31:31;;;;;;;4.20;2.90;;;;;;;22.70;39.01;100635.59;5061015;28;20484;-66
2022/06/15 04:33:58;;;;;;;7.37;3.90;;;;;;;22.88;38.57;100635.78;5061775;28;20889;-65
2022/06/15 04:36:28;;;;;;;5.97;3.23;;;;;;;22.96;39.45;100633.88;5060450;28;20528;-67
2022/06/15 04:38:55;;;;;;;7.23;4.00;;;;;;;22.64;38.95;100629.09;5060375;28;20954;-67
2022/06/15 04:41:21;;;;;;;7.83;2.93;;;;;;;22.17;42.19;100625.50;5060421;28;20651;-67
2022/06/15 04:43:48;;;;;;;6.20;3.17;;;;;;;21.51;42.70;100623.44;5060106;28;21001;-66
2022/06/15 04:46:15;;;;;;;3.70;3.23;;;;;;;22.14;40.62;100625.91;5059723;28;20473;-67
2022/06/15 04:48:42;;;;;;;4.93;2.70;;;;;;;22.19;41.38;100626.13;5062798;28;20490;-66
2022/06/15 04:51:12;;;;;;;7.30;3.73;;;;;;;21.62;42.62;100633.75;5060664;28;20477;-66
2022/06/15 04:53:40;;;;;;;6.20;3.30;;;;;;;21.56;41.78;100619.09;5061026;28;20449;-66
2022/06/15 04:56:07;;;;;;;5.63;3.40;;;;;;;22.14;40.69;100632.19;5057863;28;20515;-66
2022/06/15 04:58:39;;;;;;;7.73;3.67;;;;;;;22.54;39.97;100625.97;5074322;28;20502;-67
2022/06/15 05:01:06;;;;;;;5.40;3.30;;;;;;;23.28;38.31;100632.16;5050667;28;20509;-67
2022/06/15 05:03:33;;;;;;;5.20;3.87;;;;;;;21.84;40.52;100626.28;5040402;28;20481;-66
2022/06/15 05:06:00;;;;;;;4.23;2.83;;;;;;;20.25;44.45;100627.81;5039525;28;20978;-66
2022/06/15 05:08:27;;;;;;;7.83;3.97;;;;;;;21.04;42.75;100636.81;5041245;28;20446;-67
2022/06/15 05:10:54;;;;;;;6.13;4.20;;;;;;;20.77;43.14;100631.16;5045996;28;20508;-67
2022/06/15 05:13:21;;;;;;;5.60;3.50;;;;;;;21.05;43.61;100639.28;5061006;28;20485;-67
2022/06/15 05:15:48;;;;;;;5.43;3.77;;;;;;;22.03;40.89;100631.94;5059972;28;20480;-66
2022/06/15 05:18:14;;;;;;;4.67;3.50;;;;;;;20.12;45.09;100638.56;5060771;28;20452;-65
2022/06/15 05:20:41;;;;;;;6.13;3.60;;;;;;;23.13;39.51;100640.56;5060332;28;20496;-65
2022/06/15 05:23:09;;;;;;;4.47;3.87;;;;;;;22.72;39.86;100638.94;5059055;28;20501;-66
2022/06/15 05:25:37;;;;;;;5.27;3.90;;;;;;;22.30;40.51;100636.41;5058680;28;21103;-66
2022/06/15 05:28:06;;;;;;;6.73;3.90;;;;;;;22.84;39.03;100642.69;5067260;28;20995;-65
2022/06/15 05:30:33;;;;;;;5.13;4.00;;;;;;;21.77;41.79;100637.16;5060227;28;20536;-66
2022/06/15 05:32:59;;;;;;;8.90;3.97;;;;;;;21.95;41.72;100639.28;5059261;28;20472;-65
2022/06/15 05:35:26;;;;;;;6.90;3.10;;;;;;;22.13;40.94;100635.97;5059194;28;20465;-65
2022/06/15 05:37:53;;;;;;;9.30;4.63;;;;;;;22.43;39.80;100637.47;5059291;28;20433;-65
2022/06/15 05:40:19;;;;;;;5.80;4.10;;;;;;;22.22;40.23;100633.88;5057317;28;20433;-65
2022/06/15 05:42:46;;;;;;;8.57;4.10;;;;;;;21.71;41.65;100643.41;5040169;28;20517;-65
2022/06/15 05:45:14;;;;;;;6.73;3.70;;;;;;;22.34;40.57;100636.84;5037859;28;20446;-64
2022/06/15 05:47:41;;;;;;;7.00;3.40;;;;;;;23.71;38.13;100636.16;5038711;28;20445;-64
2022/06/15 05:50:09;;;;;;;5.13;3.33;;;;;;;22.48;40.05;100637.69;5039018;28;20462;-64
2022/06/15 05:52:36;;;;;;;5.60;3.10;;;;;;;23.65;38.73;100641.41;5036386;28;20442;-65
2022/06/15 05:55:03;;;;;;;4.17;3.20;;;;;;;24.93;35.50;100639.47;5040192;28;20509;-65
2022/06/15 05:57:29;;;;;;;4.83;3.23;;;;;;;24.62;35.96;100643.97;5048629;28;20511;-65
2022/06/15 05:59:57;;;;;;;6.33;3.80;;;;;;;23.45;37.45;100640.66;5061045;28;20429;-65
2022/06/15 06:02:28;;;;;;;4.87;3.27;;;;;;;23.50;38.16;100641.72;5059811;28;20595;-65
2022/06/15 06:04:55;;;;;;;8.97;3.63;;;;;;;22.44;39.88;100637.25;5058295;28;20481;-65
2022/06/15 06:07:22;;;;;;;4.30;3.30;;;;;;;23.13;39.17;100643.31;5037797;28;20466;-64
2022/06/15 06:09:49;;;;;;;5.67;3.10;;;;;;;24.51;36.74;100644.69;5035203;28;20466;-64
2022/06/15 06:12:17;;;;;;;4.50;2.97;;;;;;;24.61;36.27;100642.28;5038158;28;20500;-64
2022/06/15 06:14:44;;;;;;;7.13;3.30;;;;;;;23.82;38.00;100640.97;5038207;28;21063;-64
2022/06/15 06:17:12;;;;;;;5.73;3.80;;;;;;;23.28;39.38;100645.78;5037101;28;20458;-64
2022/06/15 06:19:40;;;;;;;8.53;3.60;;;;;;;24.85;36.57;100649.88;5036296;28;20927;-64
2022/06/15 06:22:06;;;;;;;7.40;4.37;;;;;;;23.04;39.52;100650.00;5035271;28;20497;-64
2022/06/15 06:24:33;;;;;;;7.00;4.30;;;;;;;23.71;38.42;100647.91;5050996;28;20493;-64
2022/06/15 06:27:00;;;;;;;6.80;4.27;;;;;;;23.78;38.49;100645.13;5041796;28;20504;-64
2022/06/15 06:29:28;;;;;;;6.00;4.03;;;;;;;23.90;38.68;100642.59;5037449;28;20480;-64
2022/06/15 06:31:54;;;;;;;7.10;4.17;;;;;;;23.99;37.85;100644.00;5036093;28;20536;-64
2022/06/15 06:34:21;;;;;;;4.87;3.67;;;;;;;24.82;37.25;100642.94;5039317;28;20525;-64
2022/06/15 06:36:49;;;;;;;4.70;3.30;;;;;;;25.82;35.49;100640.97;5038779;28;20507;-64
2022/06/15 06:39:20;;;;;;;5.90;3.30;;;;;;;24.87;36.89;100639.53;5038804;28;21008;-64
2022/06/15 06:41:46;;;;;;;6.10;3.50;;;;;;;23.79;37.76;100644.91;5039594;28;20477;-64
2022/06/15 06:44:13;;;;;;;5.60;3.53;;;;;;;24.36;37.73;100650.47;5040776;28;20799;-64
2022/06/15 06:46:43;;;;;;;6.83;3.77;;;;;;;24.32;37.88;100641.06;5051558;28;20469;-64
2022/06/15 06:49:11;;;;;;;5.50;3.10;;;;;;;24.99;36.77;100641.28;5060067;28;20436;-64
2022/06/15 06:51:39;;;;;;;5.37;3.07;;;;;;;24.52;37.25;100640.88;5052032;28;20499;-64
2022/06/15 06:54:09;;;;;;;7.87;3.40;;;;;;;24.61;37.08;100641.47;5038985;28;20478;-64
2022/06/15 06:56:36;;;;;;;4.47;2.87;;;;;;;25.65;34.97;100635.31;5037701;28;20505;-64
2022/06/15 06:59:03;;;;;;;4.00;2.93;;;;;;;25.98;34.44;100637.59;5039801;28;20513;-63
2022/06/15 07:01:30;;;;;;;7.57;4.30;;;;;;;25.58;35.13;100638.13;5038358;28;20758;-64
2022/06/15 07:03:57;;;;;;;9.20;3.53;;;;;;;26.18;34.78;100629.09;5039548;28;20493;-64
2022/06/15 07:06:23;;;;;;;6.00;2.50;;;;;;;27.60;32.24;100632.63;5038016;28;20493;-64
2022/06/15 07:08:51;;;;;;;5.77;3.37;;;;;;;26.38;35.38;100641.63;5039136;28;20465;-64
2022/06/15 07:11:19;;;;;;;7.90;3.20;;;;;;;27.32;32.15;100630.66;5038828;28;20868;-64
2022/06/15 07:13:46;;;;;;;6.77;3.77;;;;;;;27.65;32.02;100636.53;5039577;28;20500;-64
2022/06/15 07:16:14;;;;;;;6.77;3.17;;;;;;;26.52;32.64;100628.53;5040617;28;20477;-64
2022/06/15 07:18:42;;;;;;;6.80;3.13;;;;;;;28.28;29.58;100641.03;5038859;28;20966;-64
2022/06/15 07:21:18;;;;;;;6.10;2.70;;;;;;;27.73;29.98;100639.75;5043021;28;20555;-64
2022/06/15 07:23:48;;;;;;;6.40;2.40;;;;;;;28.31;26.98;100639.69;5049066;28;20544;-64
2022/06/15 07:26:18;;;;;;;5.20;2.70;;;;;;;27.19;30.97;100630.94;5038523;28;20472;-64
2022/06/15 07:28:46;;;;;;;7.30;2.53;;;;;;;27.32;30.42;100638.91;5039006;28;20461;-64
2022/06/15 07:31:20;;;;;;;6.90;2.70;;;;;;;27.27;30.41;100636.03;5038317;28;20501;-64
2022/06/15 07:33:46;;;;;;;4.90;2.57;;;;;;;26.52;31.39;100640.34;5039310;28;20535;-64
2022/06/15 07:36:13;;;;;;;6.00;2.50;;;;;;;26.81;30.97;100641.34;5037943;28;20905;-64
2022/06/15 07:38:40;;;;;;;5.87;2.33;;;;;;;26.74;30.86;100639.78;5039036;28;20472;-64
2022/06/15 07:41:06;;;;;;;7.70;3.20;;;;;;;27.42;29.23;100638.28;5038560;28;20482;-64
2022/06/15 07:43:33;;;;;;;7.10;2.80;;;;;;;27.89;29.07;100637.28;5038612;28;20481;-64
2022/06/15 07:46:01;;;;;;;5.03;2.80;;;;;;;27.13;30.92;100638.19;5036770;28;20478;-65
2022/06/15 07:51:28;;;;;;;5.53;2.30;;;;;;;28.50;28.98;100638.38;5036150;28;20492;-65
2022/06/15 07:53:55;;;;;;;4.80;3.03;;;;;;;28.49;28.71;100636.72;5037274;28;20921;-65
2022/06/15 07:56:22;;;;;;;7.50;3.13;;;;;;;28.01;30.56;100640.00;5036753;28;20872;-64
2022/06/15 07:58:48;;;;;;;4.40;2.80;;;;;;;28.91;29.03;100633.53;5037612;28;20765;-65
2022/06/15 08:01:16;;;;;;;6.23;3.03;;;;;;;29.13;28.40;100634.63;5036368;28;20473;-65
2022/06/15 08:03:43;;;;;;;6.20;3.37;;;;;;;29.44;28.28;100636.75;5037435;28;20531;-65
2022/06/15 08:06:10;;;;;;;6.50;3.60;;;;;;;28.58;29.50;100633.59;5036475;28;20477;-65
2022/06/15 08:08:37;;;;;;;6.30;3.20;;;;;;;27.47;31.32;100632.91;5037718;28;20505;-65
2022/06/15 08:11:04;;;;;;;6.60;3.40;;;;;;;27.92;30.50;100639.56;5040499;28;20777;-65
2022/06/15 08:13:31;;;;;;;6.30;3.17;;;;;;;28.82;28.35;100654.31;5040694;28;20426;-65
2022/06/15 08:15:57;;;;;;;3.67;2.80;;;;;;;29.58;27.72;100647.34;5040212;28;20497;-65
2022/06/15 08:18:28;;;;;;;3.80;2.90;;;;;;;30.20;26.92;100648.84;5041577;28;20457;-64
2022/06/15 08:20:57;;;;;;;5.40;2.73;;;;;;;30.65;26.83;100642.06;5047114;28;20953;-64
2022/06/15 08:23:25;;;;;;;5.73;2.40;;;;;;;29.63;27.98;100655.66;5039827;28;20485;-64
2022/06/15 08:25:55;;;;;;;4.30;2.67;;;;;;;28.80;29.07;100647.38;5047274;28;20477;-64
2022/06/15 08:28:23;;;;;;;5.87;2.80;;;;;;;26.39;32.37;100644.16;5061100;28;20908;-64
2022/06/15 08:30:50;;;;;;;7.17;3.03;;;;;;;27.17;32.15;100644.88;5060086;28;20476;-64
2022/06/15 08:33:17;;;;;;;6.60;3.10;;;;;;;28.34;29.86;100644.72;5054305;28;20437;-64
2022/06/15 08:35:45;;;;;;;5.23;2.60;;;;;;;28.71;30.01;100645.06;5057592;28;20607;-64
2022/06/15 08:38:15;;;;;;;4.73;2.50;;;;;;;29.25;29.04;100644.47;5060428;28;20784;-65
2022/06/15 08:40:48;;;;;;;5.70;2.97;;;;;;;29.45;28.94;100638.38;5060880;28;20480;-64
2022/06/15 08:43:20;;;;;;;4.87;2.90;;;;;;;28.98;30.04;100635.28;5047186;28;20442;-64
2022/06/15 08:45:50;;;;;;;5.23;2.97;;;;;;;28.01;31.08;100635.34;5039364;28;20485;-64
2022/06/15 08:48:31;;;;;;;5.20;2.83;;;;;;;29.14;29.92;100639.88;5040944;28;20492;-64
2022/06/15 08:51:04;;;;;;;7.10;3.57;;;;;;;27.40;31.70;100627.56;5039365;28;20478;-64
2022/06/15 08:53:34;;;;;;;4.07;2.80;;;;;;;27.02;33.17;100633.56;5040086;28;20465;-64
2022/06/15 08:56:06;;;;;;;6.33;2.83;;;;;;;28.32;30.97;100639.44;5040228;28;20468;-65
2022/06/15 08:58:41;;;;;;;4.83;3.03;;;;;;;27.22;31.64;100631.28;5039873;28;20504;-65
2022/06/15 09:01:15;;;;;;;4.53;2.57;;;;;;;28.78;29.58;100628.38;5037394;28;20501;-65
2022/06/15 09:03:47;;;;;;;5.03;2.27;;;;;;;30.28;27.89;100623.56;5039861;28;20472;-64
2022/06/15 09:06:24;;;;;;;4.50;2.00;;;;;;;29.26;28.39;100631.53;5037368;28;20540;-65
2022/06/15 09:09:02;;;;;;;5.97;2.33;;;;;;;28.42;29.55;100630.56;5040645;28;20429;-65
2022/06/15 09:11:38;;;;;;;4.13;2.37;;;;;;;27.84;30.23;100632.50;5033422;28;20826;-65
2022/06/15 09:14:14;;;;;;;6.40;1.90;;;;;;;29.40;29.04;100638.31;5033586;28;20453;-65
2022/06/15 09:16:47;;;;;;;4.07;2.43;;;;;;;31.15;26.36;100634.41;5037640;28;20493;-65
2022/06/15 09:19:16;;;;;;;5.40;2.10;;;;;;;30.62;26.49;100631.56;5038488;28;20457;-65
2022/06/15 09:21:47;;;;;;;4.57;2.00;;;;;;;27.04;31.47;100632.25;5038114;28;20478;-64
2022/06/15 09:24:16;;;;;;;4.23;2.67;;;;;;;28.89;28.67;100630.19;5038844;28;20825;-65
2022/06/15 09:26:49;;;;;;;3.50;2.53;;;;;;;27.42;29.90;100628.13;5039133;28;20473;-65
2022/06/15 09:29:19;;;;;;;4.97;3.10;;;;;;;26.77;31.37;100633.81;5038344;28;20449;-65
2022/06/15 09:31:49;;;;;;;4.90;2.10;;;;;;;26.44;32.02;100637.94;5036682;28;20560;-64
2022/06/15 09:34:21;;;;;;;3.97;2.03;;;;;;;28.15;30.09;100639.44;5035549;28;20480;-65
2022/06/15 09:36:52;;;;;;;3.30;2.07;;;;;;;27.39;31.00;100638.78;5034332;28;20508;-65
2022/06/15 09:39:20;;;;;;;3.67;1.97;;;;;;;28.60;29.44;100640.50;5036546;28;20485;-65
2022/06/15 09:41:50;;;;;;;5.10;2.70;;;;;;;29.55;27.06;100640.44;5035063;28;21235;-65
2022/06/15 09:44:25;;;;;;;5.77;2.20;;;;;;;29.23;28.16;100637.56;5038115;28;20990;-65
2022/06/15 09:47:00;;;;;;;6.53;1.80;;;;;;;29.77;27.26;100637.69;5030696;28;20481;-65
2022/06/15 09:49:38;;;;;;;4.17;2.27;;;;;;;30.05;25.61;100635.78;5038892;28;20446;-65
2022/06/15 09:52:13;;;;;;;3.43;1.87;;;;;;;30.95;26.19;100641.50;5035578;28;20501;-66
2022/06/15 09:54:47;;;;;;;5.23;2.30;;;;;;;30.90;25.78;100633.13;5036130;28;20484;-65
2022/06/15 09:57:13;;;;;;;6.40;2.47;;;;;;;30.25;27.39;100637.03;5034909;28;20688;-65
2022/06/15 09:59:41;;;;;;;5.13;2.17;;;;;;;29.65;27.16;100629.53;5035953;28;20481;-65
2022/06/15 10:02:18;;;;;;;5.97;2.43;;;;;;;31.52;25.43;100630.69;5034765;28;20477;-64
2022/06/15 10:04:44;;;;;;;7.93;2.20;;;;;;;30.08;26.35;100640.75;5031879;28;20659;-65
2022/06/15 10:07:18;;;;;;;4.50;2.23;;;;;;;27.90;28.81;100639.78;5034810;28;20509;-64
2022/06/15 10:09:50;;;;;;;7.30;2.47;;;;;;;28.48;30.26;100629.53;5036127;28;20437;-65
2022/06/15 10:12:58;;;;;;;7.20;3.23;;;;;;;29.37;28.00;100636.06;5033717;28;20481;-65
2022/06/15 10:15:29;;;;;;;4.83;2.17;;;;;;;30.26;28.62;100624.91;5030178;28;20481;-65
2022/06/15 10:17:58;;;;;;;5.70;2.73;;;;;;;28.13;30.30;100619.63;5034758;28;20441;-65
2022/06/15 10:20:30;;;;;;;9.47;2.63;;;;;;;30.34;27.18;100622.47;5033306;28;20445;-65
2022/06/15 10:23:00;;;;;;;7.43;2.60;;;;;;;31.08;27.09;100615.31;5033220;28;20492;-65
2022/06/15 10:25:29;;;;;;;2.87;2.67;;;;;;;27.18;30.77;100621.84;5034654;28;20504;-64
2022/06/15 10:28:09;;;;;;;9.27;3.33;;;;;;;27.02;31.73;100630.81;5044040;28;20508;-64
2022/06/15 10:30:36;;;;;;;7.70;3.00;;;;;;;28.84;29.67;100621.88;5037546;28;20525;-65
2022/06/15 10:33:09;;;;;;;8.47;2.87;;;;;;;28.62;29.73;100621.81;5039061;28;20468;-65
2022/06/15 10:35:36;;;;;;;7.20;2.70;;;;;;;28.41;30.45;100620.63;5036751;28;20900;-65
2022/06/15 10:38:14;;;;;;;8.17;2.93;;;;;;;29.08;29.90;100619.72;5036445;28;20508;-65
2022/06/15 10:40:52;;;;;;;5.43;2.50;;;;;;;26.32;33.30;100616.00;5019776;28;20488;-64
2022/06/15 10:43:27;;;;;;;10.13;2.90;;;;;;;27.68;30.71;100620.41;5034534;28;20489;-65
2022/06/15 10:45:59;;;;;;;4.07;2.67;;;;;;;29.68;28.89;100614.41;5029549;28;20469;-65
2022/06/15 10:48:30;;;;;;;5.20;2.80;;;;;;;29.16;29.89;100623.16;5034726;28;20504;-65
2022/06/15 10:51:00;;;;;;;6.00;3.10;;;;;;;28.51;30.19;100606.22;5030120;28;20565;-65
2022/06/15 10:53:36;;;;;;;5.63;2.73;;;;;;;28.49;29.50;100614.72;5033978;28;20872;-65
2022/06/15 11:04:28;;;;;;;3.70;2.27;;;;;;;28.35;29.57;100603.22;5034976;28;20528;-65
2022/06/15 11:07:05;;;;;;;7.77;3.00;;;;;;;29.37;28.87;100610.47;5036656;28;20489;-65
2022/06/15 11:09:36;;;;;;;5.90;2.80;;;;;;;29.40;27.30;100604.44;5037721;28;20453;-65
2022/06/15 11:12:09;;;;;;;6.73;2.90;;;;;;;28.92;30.32;100602.16;5036324;28;20504;-65
2022/06/15 11:14:45;;;;;;;6.20;2.77;;;;;;;27.72;31.42;100596.03;5030392;28;20494;-65
2022/06/15 11:20:20;;;;;;;6.30;2.70;;;;;;;28.88;29.24;100602.91;5033319;28;20457;-65
2022/06/15 11:22:49;;;;;;;4.10;2.70;;;;;;;27.18;30.83;100594.38;5033191;28;20501;-65
2022/06/15 11:25:22;;;;;;;4.97;2.60;;;;;;;26.95;32.62;100599.94;5033916;28;20512;-64
2022/06/15 11:27:52;;;;;;;4.87;3.03;;;;;;;29.23;29.47;100599.00;5033718;28;20523;-65
2022/06/15 11:30:25;;;;;;;5.13;2.53;;;;;;;30.17;28.10;100584.03;5035225;28;20450;-65
2022/06/15 11:32:58;;;;;;;4.60;2.57;;;;;;;30.66;27.79;100590.47;5038063;28;21063;-65
2022/06/15 11:35:40;;;;;;;5.90;2.60;;;;;;;30.45;26.96;100587.59;5034744;28;20450;-65
2022/06/15 11:38:14;;;;;;;3.17;2.87;;;;;;;28.11;31.19;100593.47;5037203;28;20489;-65
2022/06/15 11:40:45;;;;;;;4.47;2.73;;;;;;;28.54;30.79;100587.31;5037632;28;20476;-65
2022/06/15 11:43:17;;;;;;;4.67;3.30;;;;;;;29.37;29.19;100591.19;5037737;28;20483;-65
2022/06/15 11:46:06;;;;;;;4.70;3.23;;;;;;;28.77;29.02;100584.63;5039999;28;20481;-65
2022/06/15 11:48:44;;;;;;;3.70;2.63;;;;;;;29.00;29.14;100583.53;5036142;28;20457;-65
2022/06/15 11:51:20;;;;;;;3.30;2.57;;;;;;;30.19;27.90;100581.84;5040494;28;20906;-65
2022/06/15 11:53:55;;;;;;;5.37;2.90;;;;;;;29.97;27.63;100570.91;5035636;28;20480;-65